Time;durP1;ratioP1;P1;durP2;ratioP2;P2;SDS_P1;SDS_P2;PMS_P1;PMS_P2;Temp;Humidity;BMP_temperature;BMP_pressure;BME280_temperature;BME280_humidity;BME280_pressure;Samples;Min_cycle;Max_cycle;Signal;HPM_P1;HPM_P2
2023/03/02 00:12:25;;;;;;;20.77;14.03;;;;;;;4.38;71.97;95518.09;6024082;23;20543;-92
2023/03/02 00:56:38;;;;;;;19.23;14.63;;;;;;;4.33;71.86;95532.19;6229110;22;20227;-91
2023/03/02 01:03:44;;;;;;;20.67;14.30;;;;;;;4.25;72.01;95517.59;6218136;23;20234;-94
2023/03/02 01:10:18;;;;;;;18.80;14.37;;;;;;;4.14;72.69;95508.38;5943801;23;20183;-93
2023/03/02 01:32:48;;;;;;;21.03;15.33;;;;;;;4.00;73.29;95485.09;5964556;23;20179;-91
2023/03/02 01:39:34;;;;;;;;;;;;;;;;;;;;;
2023/03/02 01:43:08;;;;;;;;;;;;;;;;;;;;;
2023/03/02 01:46:37;;;;;;;;;;;;;;;;;;;;;
2023/03/02 02:02:14;;;;;;;21.37;15.97;;;;;;;3.73;74.22;95470.53;6232713;23;20215;-93
2023/03/02 02:18:39;;;;;;;21.53;16.27;;;;;;;3.76;74.59;95462.63;5894568;24;20266;-93
2023/03/02 02:28:35;;;;;;;23.83;16.80;;;;;;;3.87;73.84;95459.09;5999850;23;20172;-94
2023/03/02 02:37:40;;;;;;;28.10;17.30;;;;;;;3.31;76.56;95453.06;6208264;23;20651;-93
2023/03/02 02:40:45;;;;;;;23.73;17.40;;;;;;;3.46;75.55;95448.38;6239696;23;20176;-93
2023/03/02 02:47:14;;;;;;;23.50;16.97;;;;;;;3.38;76.41;95445.69;6140221;23;20305;-94
2023/03/02 02:50:36;;;;;;;22.03;16.47;;;;;;;3.44;76.07;95440.88;6234156;23;20178;-94
2023/03/02 03:23:37;;;;;;;21.93;17.07;;;;;;;3.56;75.84;95435.63;6024567;23;20847;-93
2023/03/02 03:26:35;;;;;;;19.60;15.87;;;;;;;3.60;75.46;95427.56;6078525;23;20705;-93
2023/03/02 03:29:50;;;;;;;22.27;16.00;;;;;;;3.63;75.28;95429.84;6088345;23;20520;-93
2023/03/02 03:40:54;;;;;;;21.37;16.93;;;;;;;3.41;76.92;95433.50;6203305;23;20655;-93
2023/03/02 03:43:47;;;;;;;23.13;16.70;;;;;;;3.42;76.28;95426.66;6209554;23;20192;-93
2023/03/02 03:49:36;;;;;;;24.73;17.07;;;;;;;3.35;77.01;95428.16;6087062;23;20195;-93
2023/03/02 03:58:39;;;;;;;23.17;17.03;;;;;;;3.61;76.01;95421.53;6158099;23;20201;-93
2023/03/02 04:01:08;;;;;;;23.00;17.17;;;;;;;3.54;76.14;95417.94;6188305;23;20177;-93
2023/03/02 04:04:34;;;;;;;;;;;;;;;;;;;;;
2023/03/02 04:16:33;;;;;;;24.13;17.60;;;;;;;3.62;75.67;95415.50;6172217;23;20174;-94
2023/03/02 04:25:01;;;;;;;24.33;17.73;;;;;;;3.46;76.08;95417.84;6198882;23;20204;-94
2023/03/02 04:28:31;;;;;;;23.30;17.33;;;;;;;3.53;75.93;95412.97;6208865;23;20177;-93
2023/03/02 04:34:34;;;;;;;;;;;;;;;;;;;;;
2023/03/02 04:37:30;;;;;;;22.00;17.43;;;;;;;3.58;75.83;95423.56;6116666;23;20207;-93
2023/03/02 04:46:18;;;;;;;23.30;17.30;;;;;;;3.51;75.70;95427.56;6117540;23;20172;-92
2023/03/02 04:49:25;;;;;;;23.93;18.07;;;;;;;3.44;76.61;95425.59;6199012;23;20180;-93
2023/03/02 04:52:19;;;;;;;23.27;18.10;;;;;;;3.48;76.59;95424.38;6168633;23;20252;-93
2023/03/02 04:55:06;;;;;;;24.73;17.60;;;;;;;3.45;76.11;95417.03;6208582;23;20374;-93
2023/03/02 04:57:38;;;;;;;23.73;17.83;;;;;;;3.42;76.43;95424.94;6209348;23;20169;-93
2023/03/02 05:00:20;;;;;;;23.67;17.43;;;;;;;3.44;76.25;95414.63;6209087;23;20201;-92
2023/03/02 05:02:57;;;;;;;23.77;17.97;;;;;;;3.50;76.15;95413.25;6208826;23;20174;-92
2023/03/02 05:05:57;;;;;;;22.40;16.90;;;;;;;3.49;75.56;95415.00;6210380;23;20189;-93
2023/03/02 05:08:51;;;;;;;21.03;16.23;;;;;;;3.44;75.65;95414.63;6191342;23;20165;-93
2023/03/02 05:11:36;;;;;;;22.53;17.40;;;;;;;3.43;75.71;95425.72;6210573;23;20645;-93
2023/03/02 05:14:41;;;;;;;21.40;16.60;;;;;;;3.42;75.41;95427.47;6206974;23;20201;-92
2023/03/02 05:17:22;;;;;;;20.77;16.77;;;;;;;3.42;75.23;95419.84;6204845;23;20173;-92
2023/03/02 05:22:38;;;;;;;22.70;16.63;;;;;;;3.26;74.78;95414.50;6212622;23;20204;-87
2023/03/02 05:25:11;;;;;;;22.23;16.97;;;;;;;3.28;74.98;95424.53;6214004;23;20702;-88
2023/03/02 05:27:38;;;;;;;25.73;16.20;;;;;;;3.24;74.50;95420.66;6215260;23;20164;-87
2023/03/02 05:30:05;;;;;;;21.00;16.70;;;;;;;3.19;74.46;95422.81;6213473;23;20185;-87
2023/03/02 05:32:32;;;;;;;21.67;16.63;;;;;;;3.19;74.97;95428.69;6213187;23;20200;-87
2023/03/02 05:34:58;;;;;;;21.30;16.43;;;;;;;3.17;74.81;95428.03;6212161;23;20201;-87
2023/03/02 05:37:24;;;;;;;26.57;17.93;;;;;;;3.17;74.82;95422.94;6211666;23;20173;-87
2023/03/02 05:39:51;;;;;;;22.23;17.47;;;;;;;3.19;74.57;95428.69;6212545;23;20201;-86
2023/03/02 05:42:19;;;;;;;23.27;17.60;;;;;;;3.14;76.52;95430.84;6213932;23;20180;-87
2023/03/02 05:44:45;;;;;;;21.60;17.03;;;;;;;3.16;76.10;95430.72;6213343;23;20521;-87
2023/03/02 05:47:11;;;;;;;21.20;16.73;;;;;;;3.20;75.85;95422.69;6213131;23;20184;-87
2023/03/02 05:49:38;;;;;;;24.90;16.93;;;;;;;3.26;75.53;95423.88;6213901;23;20173;-87
2023/03/02 05:52:04;;;;;;;23.67;17.87;;;;;;;3.27;74.94;95425.50;6213882;23;20169;-87
2023/03/02 05:54:31;;;;;;;21.10;17.30;;;;;;;3.25;74.61;95432.47;6212151;23;20201;-87
2023/03/02 05:56:57;;;;;;;23.70;17.33;;;;;;;3.20;75.02;95432.03;6213491;23;20590;-87
2023/03/02 05:59:25;;;;;;;23.33;16.53;;;;;;;3.13;75.59;95429.22;6213636;23;20220;-87
2023/03/02 06:01:57;;;;;;;20.80;16.13;;;;;;;3.10;75.52;95437.13;6213070;23;20176;-87
2023/03/02 06:04:24;;;;;;;19.57;15.93;;;;;;;3.12;75.58;95438.59;6213566;23;20217;-87
2023/03/02 06:06:51;;;;;;;22.63;16.57;;;;;;;2.99;79.13;95429.63;6213123;23;20173;-87
2023/03/02 06:09:18;;;;;;;23.30;17.23;;;;;;;3.05;77.20;95440.09;6214104;23;20205;-87
2023/03/02 06:11:50;;;;;;;23.00;16.20;;;;;;;2.98;78.19;95431.38;6213577;23;20170;-86
2023/03/02 06:14:16;;;;;;;24.97;17.23;;;;;;;2.95;78.33;95435.94;6212821;23;20201;-87
2023/03/02 06:16:47;;;;;;;25.63;17.50;;;;;;;2.94;78.44;95436.88;6213431;23;20177;-87
2023/03/02 06:19:13;;;;;;;21.63;16.67;;;;;;;3.02;78.06;95439.56;6211372;23;20197;-87
2023/03/02 06:21:40;;;;;;;23.27;17.10;;;;;;;3.03;77.66;95441.97;6210283;23;20548;-86
2023/03/02 06:24:06;;;;;;;23.47;17.50;;;;;;;3.02;77.19;95444.63;6211032;23;20206;-87
2023/03/02 06:26:33;;;;;;;22.90;16.50;;;;;;;3.04;77.80;95443.56;6211371;23;20174;-86
2023/03/02 06:28:59;;;;;;;23.27;17.87;;;;;;;3.20;76.88;95450.66;6210843;23;20258;-87
2023/03/02 06:31:26;;;;;;;27.03;17.37;;;;;;;3.34;76.26;95451.97;6210217;23;20177;-87
2023/03/02 06:33:53;;;;;;;26.57;17.77;;;;;;;3.41;81.92;95451.31;6210942;23;20247;-87
2023/03/02 06:36:20;;;;;;;23.87;17.37;;;;;;;3.62;78.45;95455.44;6210148;23;20177;-87
2023/03/02 06:38:46;;;;;;;24.43;17.47;;;;;;;3.87;75.38;95456.56;6210630;23;20201;-85
2023/03/02 06:41:13;;;;;;;36.80;23.00;;;;;;;4.09;73.35;95444.28;6210163;23;20193;-86
2023/03/02 06:43:39;;;;;;;30.73;19.70;;;;;;;4.26;72.25;95445.28;6209479;23;20486;-86
2023/03/02 06:46:06;;;;;;;26.97;17.87;;;;;;;4.42;71.42;95452.34;6210694;23;20239;-85
2023/03/02 06:48:32;;;;;;;23.70;16.40;;;;;;;4.56;70.98;95441.66;6209496;23;20361;-85
2023/03/02 06:51:00;;;;;;;24.90;16.97;;;;;;;4.72;70.19;95438.47;6210071;23;20177;-86
2023/03/02 06:53:26;;;;;;;23.60;17.17;;;;;;;4.85;69.23;95449.13;6210165;23;20637;-85
2023/03/02 06:55:53;;;;;;;22.13;17.00;;;;;;;4.81;69.83;95447.84;6210249;23;20255;-86
2023/03/02 06:58:19;;;;;;;21.63;16.63;;;;;;;4.86;70.79;95443.06;6209810;23;20200;-85
2023/03/02 07:00:45;;;;;;;23.03;16.67;;;;;;;5.02;70.07;95445.78;6210209;23;20280;-85
2023/03/02 07:03:12;;;;;;;21.10;16.27;;;;;;;5.30;69.79;95440.59;6209973;23;20661;-86
2023/03/02 07:05:38;;;;;;;21.23;16.47;;;;;;;5.49;69.15;95451.44;6209721;23;20197;-86
2023/03/02 07:08:06;;;;;;;19.77;16.17;;;;;;;5.53;68.85;95449.41;6210806;23;20178;-85
2023/03/02 07:10:33;;;;;;;21.00;17.00;;;;;;;5.80;68.13;95451.00;6210503;23;20746;-85
2023/03/02 07:12:59;;;;;;;21.83;16.87;;;;;;;5.99;66.63;95447.47;6212343;23;20201;-86
2023/03/02 07:15:26;;;;;;;26.03;18.90;;;;;;;6.11;66.26;95446.28;6212235;23;20201;-86
2023/03/02 07:17:52;;;;;;;61.93;41.90;;;;;;;6.28;66.07;95440.28;6211937;23;20751;-86
2023/03/02 07:20:20;;;;;;;32.53;23.13;;;;;;;6.50;65.13;95438.94;6212254;23;20442;-86
2023/03/02 07:22:46;;;;;;;24.40;18.43;;;;;;;6.51;64.63;95441.34;6213030;23;20178;-86
2023/03/02 07:25:14;;;;;;;25.23;17.17;;;;;;;6.71;64.93;95448.75;6212438;23;20205;-86
2023/03/02 07:27:41;;;;;;;20.13;16.60;;;;;;;6.69;64.07;95448.91;6212032;23;20901;-87
2023/03/02 07:30:09;;;;;;;21.27;16.93;;;;;;;6.85;63.27;95446.38;6214076;23;20178;-86
2023/03/02 07:32:35;;;;;;;20.27;16.13;;;;;;;6.77;63.49;95446.34;6211598;23;20177;-86
2023/03/02 07:35:01;;;;;;;20.17;16.47;;;;;;;6.84;63.42;95449.09;6212780;23;20580;-87
2023/03/02 07:37:28;;;;;;;21.20;16.37;;;;;;;7.12;63.13;95444.50;6213438;23;20212;-86
2023/03/02 07:39:54;;;;;;;20.67;16.83;;;;;;;7.46;61.65;95450.28;6213171;23;20208;-86
2023/03/02 07:42:22;;;;;;;21.37;16.57;;;;;;;7.61;60.82;95456.34;6213532;23;20173;-87
2023/03/02 07:44:49;;;;;;;19.40;15.83;;;;;;;7.49;60.18;95452.53;6212156;23;20198;-86
2023/03/02 07:47:15;;;;;;;20.23;14.93;;;;;;;7.51;59.57;95460.81;6211736;23;20177;-86
2023/03/02 07:49:41;;;;;;;20.27;15.90;;;;;;;7.45;59.78;95461.50;6211922;23;20556;-87
2023/03/02 07:52:08;;;;;;;20.10;16.27;;;;;;;7.12;60.68;95454.75;6212411;23;20181;-86
2023/03/02 07:54:34;;;;;;;17.70;15.43;;;;;;;6.69;61.91;95458.34;6212347;23;20194;-86
2023/03/02 07:57:01;;;;;;;25.27;19.00;;;;;;;6.52;62.64;95465.16;6212594;23;20173;-86
2023/03/02 07:59:28;;;;;;;18.87;15.90;;;;;;;6.28;63.25;95468.41;6210974;23;20720;-86
2023/03/02 08:01:55;;;;;;;23.07;19.30;;;;;;;6.15;63.64;95471.38;6212734;23;20180;-87
2023/03/02 08:04:21;;;;;;;23.43;16.70;;;;;;;6.18;64.08;95472.81;6211409;23;20194;-86
2023/03/02 08:06:48;;;;;;;21.53;15.83;;;;;;;6.12;64.10;95474.25;6211329;23;20548;-86
2023/03/02 08:09:15;;;;;;;19.93;16.50;;;;;;;6.14;64.59;95474.88;6211010;23;20178;-86
2023/03/02 08:11:41;;;;;;;22.07;16.00;;;;;;;6.34;64.54;95467.81;6211588;23;20190;-86
2023/03/02 08:14:08;;;;;;;20.90;15.97;;;;;;;7.06;62.34;95466.41;6212393;23;20197;-86
2023/03/02 08:16:36;;;;;;;19.30;14.53;;;;;;;7.73;60.67;95473.94;6212300;23;20178;-86
2023/03/02 08:19:02;;;;;;;20.27;15.07;;;;;;;7.93;59.61;95475.22;6211678;23;20208;-86
2023/03/02 08:21:29;;;;;;;19.23;15.20;;;;;;;8.27;57.85;95470.63;6210700;23;20177;-86
2023/03/02 08:23:57;;;;;;;20.13;16.40;;;;;;;7.75;58.17;95474.59;6212700;23;20181;-86
2023/03/02 08:26:23;;;;;;;18.17;15.40;;;;;;;7.51;59.63;95485.63;6212601;23;20185;-87
2023/03/02 08:28:50;;;;;;;20.10;15.27;;;;;;;7.32;59.79;95478.25;6212076;23;20177;-87
2023/03/02 08:31:19;;;;;;;21.30;15.80;;;;;;;7.25;60.51;95480.69;6212238;23;20178;-86
2023/03/02 08:33:46;;;;;;;23.73;15.40;;;;;;;7.51;59.92;95480.50;6211690;23;20182;-86
2023/03/02 08:36:15;;;;;;;18.67;15.77;;;;;;;8.03;59.76;95480.19;6211354;23;20173;-87
2023/03/02 08:38:42;;;;;;;19.03;14.97;;;;;;;8.02;58.14;95476.00;6212252;23;20174;-86
2023/03/02 08:41:11;;;;;;;19.50;15.23;;;;;;;8.28;57.81;95472.25;6211838;23;20188;-87
2023/03/02 08:43:38;;;;;;;18.57;15.13;;;;;;;8.21;58.06;95480.78;6212610;23;20177;-87
2023/03/02 08:46:05;;;;;;;20.37;15.97;;;;;;;8.39;56.91;95478.84;6212972;23;20575;-86
2023/03/02 08:48:32;;;;;;;20.23;16.33;;;;;;;8.88;56.33;95471.72;6211157;23;20182;-86
2023/03/02 08:51:02;;;;;;;20.03;14.63;;;;;;;9.13;55.35;95469.00;6211507;23;20185;-86
2023/03/02 08:53:32;;;;;;;18.17;15.27;;;;;;;9.57;54.71;95476.91;6213543;23;20232;-87
2023/03/02 08:55:58;;;;;;;21.23;15.63;;;;;;;9.64;53.61;95470.88;6215279;23;20194;-87
2023/03/02 08:58:25;;;;;;;19.73;14.77;;;;;;;9.78;53.20;95463.41;6215188;23;20180;-86
2023/03/02 09:00:52;;;;;;;17.37;14.70;;;;;;;9.98;53.49;95472.22;6216168;23;20657;-87
2023/03/02 09:03:18;;;;;;;20.83;16.77;;;;;;;10.16;52.44;95462.38;6216300;23;20178;-87
2023/03/02 09:05:45;;;;;;;25.23;20.90;;;;;;;9.88;53.47;95469.88;6214520;23;20197;-87
2023/03/02 09:08:13;;;;;;;18.97;15.73;;;;;;;10.07;52.70;95470.34;6215899;23;20200;-87
2023/03/02 09:10:40;;;;;;;17.33;15.00;;;;;;;10.36;52.71;95466.06;6214661;23;20181;-86
2023/03/02 09:13:07;;;;;;;16.83;14.83;;;;;;;10.28;51.79;95466.13;6214962;23;20568;-87
2023/03/02 09:15:33;;;;;;;17.57;15.13;;;;;;;10.63;51.74;95466.38;6213798;23;20197;-87
2023/03/02 09:17:59;;;;;;;18.57;15.77;;;;;;;10.79;51.09;95468.75;6214657;23;20161;-87
2023/03/02 09:20:26;;;;;;;19.90;15.27;;;;;;;10.99;51.14;95462.03;6214384;23;20204;-87
2023/03/02 09:22:52;;;;;;;16.63;14.77;;;;;;;10.91;50.10;95472.47;6215177;23;20303;-86
2023/03/02 09:25:20;;;;;;;17.30;15.47;;;;;;;11.21;50.53;95468.03;6214975;23;20194;-87
2023/03/02 09:27:47;;;;;;;20.57;15.40;;;;;;;11.60;50.14;95469.38;6215061;23;20236;-87
2023/03/02 09:30:15;;;;;;;19.23;14.80;;;;;;;11.52;48.11;95466.94;6213974;23;20528;-87
2023/03/02 09:32:41;;;;;;;18.80;15.00;;;;;;;11.02;49.50;95466.03;6215088;23;20647;-87
2023/03/02 09:35:08;;;;;;;16.17;14.47;;;;;;;11.23;50.30;95465.28;6214287;23;20209;-87
2023/03/02 09:37:37;;;;;;;17.33;15.00;;;;;;;10.84;50.60;95481.09;6214315;23;20196;-87
2023/03/02 09:40:05;;;;;;;18.83;14.47;;;;;;;11.01;50.13;95475.53;6214787;23;20271;-87
2023/03/02 09:42:57;;;;;;;18.30;14.93;;;;;;;11.19;50.20;95471.75;6212837;23;20719;-87
2023/03/02 09:45:36;;;;;;;17.67;14.97;;;;;;;11.51;50.20;95473.09;6214520;23;20200;-87
2023/03/02 09:48:15;;;;;;;16.97;14.60;;;;;;;11.30;49.12;95474.69;6213290;23;20161;-87
2023/03/02 09:50:51;;;;;;;17.60;15.10;;;;;;;10.92;49.53;95478.44;6214156;23;20524;-86
2023/03/02 09:53:30;;;;;;;19.53;15.13;;;;;;;10.92;50.00;95475.84;6214425;23;20153;-87
2023/03/02 09:56:00;;;;;;;16.70;14.53;;;;;;;10.82;50.03;95470.97;6213827;23;20551;-87
2023/03/02 09:58:34;;;;;;;17.80;13.83;;;;;;;11.03;51.20;95475.38;6213842;23;20173;-87
2023/03/02 10:01:04;;;;;;;18.63;14.10;;;;;;;11.36;50.25;95465.38;6214312;23;20182;-86
2023/03/02 10:03:38;;;;;;;17.63;13.83;;;;;;;11.15;49.26;95466.19;6214568;23;20563;-87
2023/03/02 10:06:04;;;;;;;17.70;14.53;;;;;;;11.34;49.97;95472.53;6215795;23;20201;-87
2023/03/02 10:08:35;;;;;;;18.23;14.43;;;;;;;11.43;49.87;95469.63;6216325;23;20177;-87
2023/03/02 10:11:08;;;;;;;16.87;14.03;;;;;;;11.46;49.56;95476.22;6215272;23;20193;-87
2023/03/02 10:13:42;;;;;;;19.27;14.20;;;;;;;11.52;48.84;95474.69;6215205;23;20647;-86
2023/03/02 10:16:19;;;;;;;15.63;13.93;;;;;;;11.73;48.46;95477.25;6214807;23;20193;-87
2023/03/02 10:18:49;;;;;;;17.00;14.43;;;;;;;11.78;48.41;95474.91;6214237;23;20184;-87
2023/03/02 10:21:22;;;;;;;19.57;14.30;;;;;;;12.01;48.83;95478.06;6212368;23;20640;-87
2023/03/02 10:23:56;;;;;;;25.77;20.67;;;;;;;12.28;48.75;95473.09;6213047;23;20158;-87
2023/03/02 10:26:29;;;;;;;27.57;22.67;;;;;;;12.24;48.35;95474.47;6213390;23;20752;-87
2023/03/02 10:29:03;;;;;;;17.30;14.80;;;;;;;12.40;47.80;95474.16;6212747;23;20158;-86
2023/03/02 10:31:32;;;;;;;19.13;14.23;;;;;;;12.55;47.20;95474.03;6213452;23;20164;-87
2023/03/02 10:33:59;;;;;;;18.57;14.47;;;;;;;12.65;47.27;95484.81;6213104;23;20181;-87
2023/03/02 10:36:28;;;;;;;20.97;14.80;;;;;;;12.47;47.71;95474.19;6212486;23;20182;-87
2023/03/02 10:38:56;;;;;;;18.40;14.77;;;;;;;12.22;47.52;95477.22;6212776;23;20601;-87
2023/03/02 10:41:26;;;;;;;19.07;14.13;;;;;;;11.92;48.68;95479.22;6212581;23;20204;-87
2023/03/02 10:43:59;;;;;;;16.43;13.77;;;;;;;11.75;48.50;95481.22;6213046;23;20174;-87
2023/03/02 10:46:25;;;;;;;17.70;15.13;;;;;;;11.54;48.88;95478.69;6212961;23;20161;-87
2023/03/02 10:48:53;;;;;;;23.13;19.57;;;;;;;11.67;49.28;95475.41;6212114;23;20232;-87
2023/03/02 10:51:27;;;;;;;18.80;14.57;;;;;;;11.92;49.05;95474.06;6213996;23;20181;-87
2023/03/02 10:54:06;;;;;;;16.83;12.97;;;;;;;12.07;49.35;95476.53;6213873;23;20177;-87
2023/03/02 10:56:32;;;;;;;17.20;13.17;;;;;;;12.19;48.45;95477.59;6213195;23;20177;-87
2023/03/02 10:59:02;;;;;;;17.17;13.40;;;;;;;12.10;48.21;95482.13;6212741;23;20501;-87
2023/03/02 11:01:30;;;;;;;16.03;13.47;;;;;;;11.88;48.93;95480.56;6210530;23;20704;-87
2023/03/02 11:03:58;;;;;;;15.87;13.27;;;;;;;11.82;49.41;95473.56;6210816;23;20177;-87
2023/03/02 11:06:24;;;;;;;15.73;13.20;;;;;;;11.98;50.00;95480.22;6211025;23;20173;-87
2023/03/02 11:09:02;;;;;;;19.80;13.07;;;;;;;12.18;49.38;95473.44;6210979;23;20174;-87
2023/03/02 11:11:30;;;;;;;16.43;13.13;;;;;;;12.20;48.46;95479.19;6210269;23;20223;-87
2023/03/02 11:14:07;;;;;;;16.47;13.17;;;;;;;12.21;48.76;95475.63;6210672;23;20644;-87
2023/03/02 11:16:34;;;;;;;16.37;13.63;;;;;;;12.42;48.82;95477.34;6210551;23;20172;-87
2023/03/02 11:19:05;;;;;;;17.40;13.33;;;;;;;12.40;48.12;95463.81;6211159;23;20192;-86
2023/03/02 11:21:35;;;;;;;21.50;19.00;;;;;;;12.19;48.47;95461.31;6210063;23;20177;-87
2023/03/02 11:24:09;;;;;;;17.73;14.00;;;;;;;12.40;48.58;95463.81;6210746;23;20502;-86
2023/03/02 11:26:39;;;;;;;17.90;12.53;;;;;;;12.33;49.04;95470.72;6210804;23;20168;-87
2023/03/02 11:29:14;;;;;;;14.47;12.23;;;;;;;12.62;48.90;95461.97;6210938;23;20239;-87
2023/03/02 11:31:46;;;;;;;13.40;12.00;;;;;;;12.56;47.89;95454.97;6210957;23;20158;-87
2023/03/02 11:34:28;;;;;;;15.73;12.40;;;;;;;12.54;48.05;95454.34;6210183;23;20720;-86
2023/03/02 11:37:03;;;;;;;16.60;12.67;;;;;;;12.67;48.70;95449.28;6210872;23;20189;-88
2023/03/02 11:39:41;;;;;;;15.23;12.23;;;;;;;12.81;48.46;95445.75;6211016;23;20937;-87
2023/03/02 11:42:18;;;;;;;15.37;12.33;;;;;;;12.98;47.60;95444.41;6210821;23;20165;-87
2023/03/02 11:44:46;;;;;;;29.23;24.70;;;;;;;13.09;47.56;95441.25;6210519;23;20193;-87
2023/03/02 11:47:14;;;;;;;28.73;25.43;;;;;;;13.26;47.62;95443.53;6210263;23;20561;-86
2023/03/02 11:49:45;;;;;;;18.70;14.67;;;;;;;13.41;48.22;95438.97;6210732;23;20169;-87
2023/03/02 11:52:19;;;;;;;17.43;12.97;;;;;;;13.43;47.27;95442.16;6210155;23;20166;-87
2023/03/02 11:54:49;;;;;;;18.07;12.73;;;;;;;13.36;48.73;95447.31;6212253;23;20579;-87
2023/03/02 11:57:22;;;;;;;14.20;12.80;;;;;;;13.35;49.04;95443.13;6214914;23;20170;-87
2023/03/02 11:59:50;;;;;;;14.70;12.00;;;;;;;13.45;48.41;95437.56;6210107;23;20161;-87
2023/03/02 12:02:19;;;;;;;14.43;12.10;;;;;;;13.45;47.67;95438.38;6209385;23;20673;-87
2023/03/02 12:04:47;;;;;;;12.20;10.93;;;;;;;13.32;47.01;95437.53;6210952;23;20200;-86
2023/03/02 12:07:21;;;;;;;13.17;11.73;;;;;;;13.30;46.32;95429.19;6210719;23;20652;-87
2023/03/02 12:09:57;;;;;;;13.53;12.13;;;;;;;12.75;47.03;95431.00;6209813;23;20162;-87
2023/03/02 12:12:33;;;;;;;15.00;12.07;;;;;;;12.68;47.71;95423.25;6210157;23;20153;-87
2023/03/02 12:15:00;;;;;;;13.80;11.80;;;;;;;12.85;47.44;95428.06;6210142;23;20201;-87
2023/03/02 12:17:35;;;;;;;15.50;11.53;;;;;;;13.11;46.47;95428.91;6210108;23;20220;-87
2023/03/02 12:20:23;;;;;;;13.37;11.50;;;;;;;13.33;46.64;95429.59;6209216;23;20224;-87
2023/03/02 12:22:49;;;;;;;13.23;11.83;;;;;;;13.43;45.54;95426.63;6210551;23;20169;-87
2023/03/02 12:25:35;;;;;;;12.00;10.70;;;;;;;13.50;46.03;95427.41;6209885;23;20193;-86
2023/03/02 12:28:02;;;;;;;12.77;11.30;;;;;;;13.58;46.66;95423.84;6209289;23;20193;-87
2023/03/02 12:30:30;;;;;;;14.60;12.43;;;;;;;13.57;46.17;95427.44;6209370;23;20173;-87
2023/03/02 12:33:18;;;;;;;14.33;11.30;;;;;;;13.33;46.05;95429.59;6209571;23;20775;-87
2023/03/02 12:35:47;;;;;;;17.30;11.70;;;;;;;13.43;46.61;95429.22;6211018;23;20193;-87
2023/03/02 12:38:25;;;;;;;14.23;11.97;;;;;;;13.36;45.99;95421.44;6213565;23;20178;-86
2023/03/02 12:41:05;;;;;;;16.17;11.33;;;;;;;13.51;45.91;95421.25;6216593;23;20188;-87
2023/03/02 12:43:33;;;;;;;15.40;11.80;;;;;;;13.61;45.79;95423.44;6217600;23;20161;-87
2023/03/02 12:46:25;;;;;;;12.90;11.50;;;;;;;13.68;45.73;95419.84;6216576;23;20209;-86
2023/03/02 12:48:59;;;;;;;13.10;10.73;;;;;;;13.75;45.59;95419.84;6215453;23;20161;-87
2023/03/02 12:51:29;;;;;;;12.90;11.13;;;;;;;13.59;45.86;95415.88;6216065;23;20160;-87
2023/03/02 12:54:02;;;;;;;12.07;10.80;;;;;;;13.65;45.80;95415.09;6215519;23;20177;-87
2023/03/02 12:56:29;;;;;;;13.17;11.77;;;;;;;13.71;45.45;95405.72;6215535;23;20177;-87
2023/03/02 12:58:55;;;;;;;11.80;10.60;;;;;;;13.75;45.28;95406.91;6215296;23;20188;-87
2023/03/02 13:01:24;;;;;;;13.93;10.87;;;;;;;13.88;45.58;95403.50;6214948;23;20200;-87
2023/03/02 13:03:51;;;;;;;14.87;11.53;;;;;;;13.81;45.36;95408.72;6214805;23;20170;-87
2023/03/02 13:06:19;;;;;;;12.80;10.07;;;;;;;13.83;45.25;95404.16;6214429;23;20177;-87
2023/03/02 13:08:48;;;;;;;11.57;10.35;;;;;;;13.91;45.04;95397.94;6213171;23;20668;-88
2023/03/02 13:11:24;;;;;;;14.32;11.00;;;;;;;13.85;45.10;95399.56;6213548;23;20586;-87
2023/03/02 13:13:50;;;;;;;12.70;11.10;;;;;;;13.56;45.24;95403.34;6213895;23;20631;-86
2023/03/02 13:33:21;;;;;;;12.53;10.03;;;;;;;13.89;44.34;95387.00;6213474;23;20223;-87
2023/03/02 13:35:48;;;;;;;12.03;10.40;;;;;;;13.91;44.47;95392.78;6213439;23;20200;-87
2023/03/02 13:38:17;;;;;;;10.73;9.63;;;;;;;14.03;44.48;95389.38;6213906;23;20187;-88
2023/03/02 13:40:47;;;;;;;9.23;8.32;;;;;;;14.26;44.25;95391.50;6215606;23;20176;-87
2023/03/02 13:43:21;;;;;;;11.20;8.47;;;;;;;14.41;43.56;95381.72;6214857;23;20206;-87
2023/03/02 13:45:53;;;;;;;11.25;8.05;;;;;;;14.60;43.83;95379.25;6216962;23;20200;-87
2023/03/02 13:48:21;;;;;;;8.90;7.80;;;;;;;14.73;43.20;95381.78;6214438;23;20178;-87
2023/03/02 13:50:54;;;;;;;17.33;8.38;;;;;;;14.50;42.76;95377.91;6215358;23;20212;-87
2023/03/02 13:53:21;;;;;;;10.45;8.35;;;;;;;14.57;43.00;95379.66;6215632;23;20181;-88
2023/03/02 13:55:47;;;;;;;8.65;7.75;;;;;;;14.60;43.22;95381.84;6214354;23;20197;-88
2023/03/02 13:58:17;;;;;;;13.43;8.20;;;;;;;14.47;43.24;95382.69;6214284;23;20173;-87
2023/03/02 14:00:44;;;;;;;10.70;9.02;;;;;;;14.57;43.32;95377.09;6214524;23;20513;-88
2023/03/02 14:03:23;;;;;;;9.38;7.93;;;;;;;14.64;42.29;95380.41;6214403;23;20182;-87
2023/03/02 14:05:50;;;;;;;9.90;8.50;;;;;;;14.68;43.16;95381.59;6214667;23;20197;-88
2023/03/02 14:08:17;;;;;;;8.88;7.97;;;;;;;14.69;42.78;95373.63;6214221;23;20201;-86
2023/03/02 14:10:43;;;;;;;21.48;17.10;;;;;;;14.74;42.91;95376.41;6214411;23;20202;-88
2023/03/02 14:13:14;;;;;;;12.57;10.38;;;;;;;14.75;43.25;95382.38;6214994;23;20185;-87
2023/03/02 14:15:46;;;;;;;8.40;7.55;;;;;;;14.57;42.42;95382.25;6214363;23;20196;-88
2023/03/02 14:18:27;;;;;;;9.57;8.27;;;;;;;14.43;43.02;95379.72;6213706;23;20161;-88
2023/03/02 14:20:54;;;;;;;9.00;8.07;;;;;;;14.20;43.39;95381.97;6212707;23;20158;-87
2023/03/02 14:23:20;;;;;;;16.33;12.93;;;;;;;14.22;45.09;95379.19;6214736;23;20178;-87
2023/03/02 14:25:47;;;;;;;20.95;14.63;;;;;;;14.09;45.98;95385.97;6213090;23;20197;-87
2023/03/02 14:28:26;;;;;;;18.90;15.32;;;;;;;14.05;45.77;95374.41;6213441;23;20209;-87
2023/03/02 14:30:54;;;;;;;18.57;15.60;;;;;;;13.95;46.23;95381.03;6213812;23;20185;-87
2023/03/02 14:33:21;;;;;;;19.65;16.27;;;;;;;13.98;46.35;95389.19;6213779;23;20177;-87
2023/03/02 14:35:51;;;;;;;19.52;14.57;;;;;;;13.78;46.26;95383.25;6213268;23;20202;-87
2023/03/02 14:38:19;;;;;;;19.98;15.85;;;;;;;13.66;46.64;95382.25;6213765;23;20162;-87
2023/03/02 14:40:45;;;;;;;17.77;15.27;;;;;;;13.65;47.06;95389.22;6213323;23;20227;-87
2023/03/02 14:43:12;;;;;;;19.98;15.13;;;;;;;13.67;46.68;95384.63;6213793;23;20177;-87
2023/03/02 14:45:38;;;;;;;22.63;15.53;;;;;;;13.50;47.29;95380.84;6214290;23;20525;-87
2023/03/02 14:48:05;;;;;;;16.45;14.75;;;;;;;13.40;47.60;95377.88;6216331;23;20181;-87
2023/03/02 14:50:36;;;;;;;19.70;15.70;;;;;;;13.42;47.82;95381.88;6217302;23;20178;-87
2023/03/02 14:53:09;;;;;;;18.23;16.07;;;;;;;13.42;47.43;95374.09;6217574;23;20168;-87
2023/03/02 14:55:36;;;;;;;19.93;15.47;;;;;;;13.40;47.91;95370.13;6214493;23;20526;-88
2023/03/02 14:58:04;;;;;;;22.00;19.13;;;;;;;13.27;48.38;95380.47;6214842;23;20555;-88
2023/03/02 15:00:31;;;;;;;21.17;16.53;;;;;;;13.17;48.29;95385.22;6215284;23;20166;-87
2023/03/02 15:02:58;;;;;;;20.10;15.63;;;;;;;13.12;48.85;95383.97;6214421;23;20652;-87
2023/03/02 15:05:24;;;;;;;18.67;16.53;;;;;;;13.03;48.77;95382.59;6214565;23;20567;-87
2023/03/02 15:07:52;;;;;;;23.43;16.40;;;;;;;12.85;48.88;95384.94;6214170;23;20181;-86
2023/03/02 15:10:22;;;;;;;20.87;15.47;;;;;;;12.93;48.98;95379.56;6213974;23;20177;-87
2023/03/02 15:12:48;;;;;;;19.80;15.53;;;;;;;13.02;48.93;95385.38;6214418;23;20196;-87
2023/03/02 15:15:15;;;;;;;20.57;15.67;;;;;;;12.77;49.20;95385.09;6218914;23;20194;-88
2023/03/02 15:17:42;;;;;;;19.30;16.00;;;;;;;12.64;49.53;95385.88;6217624;23;20208;-88
2023/03/02 15:20:14;;;;;;;20.10;16.77;;;;;;;12.47;50.32;95391.56;6217100;23;20360;-88
2023/03/02 15:22:40;;;;;;;20.27;15.93;;;;;;;12.28;50.51;95388.72;6215299;23;20173;-88
2023/03/02 15:25:07;;;;;;;18.87;16.77;;;;;;;12.29;50.93;95392.09;6214026;23;20200;-89
2023/03/02 15:27:35;;;;;;;21.07;16.23;;;;;;;11.99;51.30;95400.06;6213545;23;20196;-89
2023/03/02 15:30:01;;;;;;;20.43;17.23;;;;;;;11.85;51.60;95390.66;6214206;23;20177;-88
2023/03/02 15:32:27;;;;;;;24.43;17.50;;;;;;;11.83;51.77;95394.41;6214262;23;20537;-88
2023/03/02 15:34:54;;;;;;;21.33;17.70;;;;;;;11.65;52.28;95398.22;6213841;23;20684;-88